createdAt,value
2022-08-11T00:00:41.420Z,14.69
2022-08-11T00:01:31.430Z,14.69
2022-08-11T00:02:21.465Z,14.67
2022-08-11T00:03:11.454Z,14.67
2022-08-11T00:04:01.398Z,14.69
2022-08-11T00:04:51.370Z,14.71
2022-08-11T00:05:41.371Z,14.71
2022-08-11T00:06:31.377Z,14.71
2022-08-11T00:07:21.350Z,14.72
2022-08-11T00:08:11.338Z,14.71
2022-08-11T00:09:01.358Z,14.72
2022-08-11T00:09:51.339Z,14.71
2022-08-11T00:10:41.339Z,14.69
2022-08-11T00:11:31.302Z,14.64
2022-08-11T00:12:21.307Z,14.63
2022-08-11T00:13:11.299Z,14.60
2022-08-11T00:14:02.278Z,14.57
2022-08-11T00:14:51.260Z,14.53
2022-08-11T00:15:41.271Z,14.52
2022-08-11T00:16:31.259Z,14.48
2022-08-11T00:17:21.250Z,14.45
2022-08-11T00:18:11.231Z,14.44
2022-08-11T00:19:01.229Z,14.44
2022-08-11T00:20:12.686Z,14.44
2022-08-11T00:20:42.209Z,14.45
2022-08-11T00:22:02.973Z,14.46
2022-08-11T00:22:22.188Z,14.48
2022-08-11T00:23:11.168Z,14.49
2022-08-11T00:24:01.177Z,14.53
2022-08-11T00:24:54.005Z,14.52
2022-08-11T00:25:42.159Z,14.52
2022-08-11T00:26:31.136Z,14.48
2022-08-11T00:27:21.158Z,14.42
2022-08-11T00:28:11.147Z,14.41
2022-08-11T00:29:01.107Z,14.39
2022-08-11T00:29:51.854Z,14.36
2022-08-11T00:30:41.095Z,14.31
2022-08-11T00:31:31.098Z,14.29
2022-08-11T00:32:21.087Z,14.26
2022-08-11T00:33:11.067Z,14.27
2022-08-11T00:34:01.087Z,14.29
2022-08-11T00:34:51.037Z,14.27
2022-08-11T00:35:53.703Z,14.26
2022-08-11T00:36:32.046Z,14.27
2022-08-11T00:37:21.017Z,14.29
2022-08-11T00:38:11.026Z,14.26
2022-08-11T00:39:01.007Z,14.26
2022-08-11T00:39:51.086Z,14.26
2022-08-11T00:40:40.987Z,14.27
2022-08-11T00:41:30.967Z,14.26
2022-08-11T00:42:20.994Z,14.24
2022-08-11T00:43:11.572Z,14.27
2022-08-11T00:44:01.970Z,14.26
2022-08-11T00:44:50.938Z,14.26
2022-08-11T00:45:40.926Z,14.29
2022-08-11T00:46:30.936Z,14.29
2022-08-11T00:47:20.935Z,14.29
2022-08-11T00:48:10.888Z,14.27
2022-08-11T00:49:00.886Z,14.27
2022-08-11T00:49:50.866Z,14.29
2022-08-11T00:50:40.887Z,14.29
2022-08-11T00:52:02.341Z,14.29
2022-08-11T00:52:21.854Z,14.29
2022-08-11T00:53:10.839Z,14.27
2022-08-11T00:54:00.852Z,14.26
2022-08-11T00:54:50.837Z,14.26
2022-08-11T00:55:40.825Z,14.21
2022-08-11T00:56:31.827Z,14.17
2022-08-11T00:57:36.043Z,14.13
2022-08-11T00:58:11.775Z,14.11
2022-08-11T00:59:00.792Z,14.06
2022-08-11T00:59:50.774Z,14.01
2022-08-11T01:00:40.797Z,13.91
2022-08-11T01:01:30.831Z,13.88
2022-08-11T01:02:20.744Z,13.86
2022-08-11T01:03:10.766Z,13.86
2022-08-11T01:04:00.724Z,13.87
2022-08-11T01:04:55.546Z,13.88
2022-08-11T01:05:41.714Z,13.90
2022-08-11T01:06:30.684Z,13.91
2022-08-11T01:08:01.397Z,13.91
2022-08-11T01:08:11.705Z,13.91
2022-08-11T01:09:00.674Z,13.91
2022-08-11T01:09:50.684Z,13.91
2022-08-11T01:10:40.657Z,13.93
2022-08-11T01:11:30.647Z,13.93
2022-08-11T01:12:20.623Z,13.91
2022-08-11T01:13:10.613Z,13.90
2022-08-11T01:14:00.635Z,13.88
2022-08-11T01:14:50.595Z,13.90
2022-08-11T01:15:40.603Z,13.90
2022-08-11T01:16:30.574Z,13.91
2022-08-11T01:17:20.594Z,13.90
2022-08-11T01:18:10.566Z,13.93
2022-08-11T01:19:00.572Z,13.94
2022-08-11T01:20:39.442Z,13.93
2022-08-11T01:20:46.907Z,13.91
2022-08-11T01:21:31.539Z,13.91
2022-08-11T01:22:20.533Z,13.91
2022-08-11T01:23:12.591Z,13.93
2022-08-11T01:24:01.494Z,13.93
2022-08-11T01:24:50.485Z,13.94
2022-08-11T01:25:57.112Z,13.96
2022-08-11T01:26:31.473Z,13.93
2022-08-11T01:27:20.484Z,13.91
2022-08-11T01:28:10.454Z,13.86
2022-08-11T01:29:00.443Z,13.86
2022-08-11T01:29:50.443Z,13.84
2022-08-11T01:30:40.463Z,13.84
2022-08-11T01:31:30.423Z,13.81
2022-08-11T01:32:20.423Z,13.76
2022-08-11T01:33:10.402Z,13.75
2022-08-11T01:34:00.388Z,13.76
2022-08-11T01:34:50.373Z,13.80
2022-08-11T01:35:40.384Z,13.80
2022-08-11T01:36:30.362Z,13.79
2022-08-11T01:37:20.362Z,13.79
2022-08-11T01:38:10.343Z,13.79
2022-08-11T01:39:00.362Z,13.75
2022-08-11T01:39:50.379Z,13.75
2022-08-11T01:40:40.324Z,13.73
2022-08-11T01:41:30.312Z,13.71
2022-08-11T01:42:20.296Z,13.69
2022-08-11T01:43:10.321Z,13.68
2022-08-11T01:44:00.270Z,13.68
2022-08-11T01:44:50.278Z,13.68
2022-08-11T01:45:40.262Z,13.69
2022-08-11T01:46:30.252Z,13.69
2022-08-11T01:47:20.241Z,13.71
2022-08-11T01:48:10.223Z,13.69
2022-08-11T01:49:00.222Z,13.71
2022-08-11T01:50:08.283Z,13.69
2022-08-11T01:50:41.208Z,13.69
2022-08-11T01:51:30.238Z,13.69
2022-08-11T01:52:20.212Z,13.68
2022-08-11T01:53:11.172Z,13.68
2022-08-11T01:54:00.173Z,13.66
2022-08-11T01:54:50.171Z,13.63
2022-08-11T01:55:40.156Z,13.62
2022-08-11T01:56:30.147Z,13.61
2022-08-11T01:57:20.121Z,13.59
2022-08-11T01:58:10.150Z,13.59
2022-08-11T01:59:00.122Z,13.57
2022-08-11T01:59:50.111Z,13.55
2022-08-11T02:00:40.149Z,13.55
2022-08-11T02:01:30.101Z,13.53
2022-08-11T02:02:21.649Z,13.51
2022-08-11T02:03:10.090Z,13.50
2022-08-11T02:04:00.061Z,13.44
2022-08-11T02:04:50.041Z,13.43
2022-08-11T02:05:40.049Z,13.39
2022-08-11T02:06:30.041Z,13.39
2022-08-11T02:07:20.029Z,13.36
2022-08-11T02:08:10.009Z,13.32
2022-08-11T02:08:59.990Z,13.29
2022-08-11T02:09:51.937Z,13.29
2022-08-11T02:10:39.980Z,13.28
2022-08-11T02:11:29.979Z,13.28
2022-08-11T02:12:19.970Z,13.28
2022-08-11T02:13:09.962Z,13.28
2022-08-11T02:13:59.960Z,13.27
2022-08-11T02:15:04.586Z,13.27
2022-08-11T02:15:40.929Z,13.24
2022-08-11T02:16:29.920Z,13.24
2022-08-11T02:17:19.945Z,13.22
2022-08-11T02:18:09.908Z,13.21
2022-08-11T02:18:59.882Z,13.19
2022-08-11T02:19:49.878Z,13.19
2022-08-11T02:20:39.880Z,13.19
2022-08-11T02:21:29.869Z,13.19
2022-08-11T02:22:19.840Z,13.21
2022-08-11T02:23:09.869Z,13.19
2022-08-11T02:24:04.975Z,13.22
2022-08-11T02:24:50.829Z,13.24
2022-08-11T02:25:39.809Z,13.25
2022-08-11T02:26:29.820Z,13.27
2022-08-11T02:27:19.807Z,13.27
2022-08-11T02:28:09.794Z,13.25
2022-08-11T02:28:59.771Z,13.25
2022-08-11T02:29:49.769Z,13.22
2022-08-11T02:30:39.758Z,13.21
2022-08-11T02:32:23.922Z,13.17
2022-08-11T02:32:30.049Z,13.14
2022-08-11T02:33:10.732Z,13.14
2022-08-11T02:33:59.716Z,13.13
2022-08-11T02:34:59.315Z,13.10
2022-08-11T02:35:40.708Z,13.10
2022-08-11T02:36:29.688Z,13.10
2022-08-11T02:37:23.502Z,13.09
2022-08-11T02:38:09.694Z,13.09
2022-08-11T02:38:59.666Z,13.10
2022-08-11T02:39:49.748Z,13.12
2022-08-11T02:40:39.656Z,13.10
2022-08-11T02:41:29.657Z,13.07
2022-08-11T02:42:32.098Z,13.06
2022-08-11T02:43:10.617Z,13.03
2022-08-11T02:43:59.604Z,13.01
2022-08-11T02:44:49.597Z,12.98
2022-08-11T02:45:39.597Z,12.96
2022-08-11T02:46:29.596Z,12.95
2022-08-11T02:47:19.594Z,12.95
2022-08-11T02:48:09.566Z,12.94
2022-08-11T02:48:59.558Z,12.91
2022-08-11T02:49:49.545Z,12.92
2022-08-11T02:50:40.546Z,12.92
2022-08-11T02:51:29.536Z,12.91
2022-08-11T02:52:19.517Z,12.91
2022-08-11T02:53:09.514Z,12.88
2022-08-11T02:53:59.524Z,12.87
2022-08-11T02:54:49.484Z,12.85
2022-08-11T02:55:56.052Z,12.79
2022-08-11T02:56:30.486Z,12.76
2022-08-11T02:57:19.477Z,12.76
2022-08-11T02:58:09.466Z,12.76
2022-08-11T02:58:59.446Z,12.76
2022-08-11T02:59:49.447Z,12.74
2022-08-11T03:00:39.416Z,12.70
2022-08-11T03:01:29.460Z,12.70
2022-08-11T03:02:19.415Z,12.69
2022-08-11T03:03:09.427Z,12.70
2022-08-11T03:03:59.377Z,12.67
2022-08-11T03:04:49.399Z,12.62
2022-08-11T03:05:39.356Z,12.58
2022-08-11T03:06:29.375Z,12.54
2022-08-11T03:07:28.537Z,12.52
2022-08-11T03:08:10.347Z,12.52
2022-08-11T03:08:59.344Z,12.52
2022-08-11T03:09:49.330Z,12.51
2022-08-11T03:10:39.343Z,12.49
2022-08-11T03:11:29.315Z,12.51
2022-08-11T03:12:19.292Z,12.51
2022-08-11T03:13:09.283Z,12.51
2022-08-11T03:13:59.276Z,12.52
2022-08-11T03:14:49.276Z,12.54
2022-08-11T03:15:39.274Z,12.54
2022-08-11T03:16:29.244Z,12.54
2022-08-11T03:17:19.244Z,12.51
2022-08-11T03:18:09.234Z,12.46
2022-08-11T03:18:59.225Z,12.46
2022-08-11T03:19:49.207Z,12.48
2022-08-11T03:20:39.361Z,12.46
2022-08-11T03:22:01.134Z,12.49
2022-08-11T03:22:20.194Z,12.51
2022-08-11T03:23:20.109Z,12.52
2022-08-11T03:24:00.173Z,12.52
2022-08-11T03:24:49.164Z,12.52
2022-08-11T03:25:39.137Z,12.54
2022-08-11T03:26:29.164Z,12.52
2022-08-11T03:27:19.121Z,12.52
2022-08-11T03:28:09.123Z,12.51
2022-08-11T03:28:59.103Z,12.49
2022-08-11T03:29:49.093Z,12.46
2022-08-11T03:30:39.105Z,12.43
2022-08-11T03:31:29.110Z,12.43
2022-08-11T03:32:19.072Z,12.44
2022-08-11T03:33:09.113Z,12.46
2022-08-11T03:34:02.754Z,12.46
2022-08-11T03:34:50.042Z,12.43
2022-08-11T03:35:39.040Z,12.43
2022-08-11T03:36:29.032Z,12.40
2022-08-11T03:37:19.008Z,12.37
2022-08-11T03:38:09.020Z,12.34
2022-08-11T03:38:59.002Z,12.33
2022-08-11T03:39:56.235Z,12.29
2022-08-11T03:40:39.982Z,12.23
2022-08-11T03:42:02.140Z,12.25
2022-08-11T03:42:19.972Z,12.23
2022-08-11T03:43:08.950Z,12.23
2022-08-11T03:43:58.996Z,12.25
2022-08-11T03:44:48.941Z,12.26
2022-08-11T03:45:41.101Z,12.30
2022-08-11T03:46:28.941Z,12.29
2022-08-11T03:47:18.899Z,12.31
2022-08-11T03:48:08.892Z,12.34
2022-08-11T03:48:58.890Z,12.37
2022-08-11T03:49:48.886Z,12.37
2022-08-11T03:50:38.879Z,12.37
2022-08-11T03:51:51.861Z,12.40
2022-08-11T03:52:19.879Z,12.38
2022-08-11T03:53:08.851Z,12.38
2022-08-11T03:53:58.831Z,12.40
2022-08-11T03:54:48.819Z,12.41
2022-08-11T03:55:38.801Z,12.43
2022-08-11T03:56:28.820Z,12.43
2022-08-11T03:57:18.808Z,12.44
2022-08-11T03:58:08.799Z,12.44
2022-08-11T03:58:58.780Z,12.44
2022-08-11T03:59:48.760Z,12.40
2022-08-11T04:00:38.749Z,12.36
2022-08-11T04:01:28.804Z,12.31
2022-08-11T04:02:18.760Z,12.29
2022-08-11T04:03:08.738Z,12.26
2022-08-11T04:03:58.731Z,12.26
2022-08-11T04:04:51.215Z,12.26
2022-08-11T04:05:38.690Z,12.29
2022-08-11T04:06:28.700Z,12.26
2022-08-11T04:07:18.678Z,12.30
2022-08-11T04:08:08.680Z,12.26
2022-08-11T04:08:58.650Z,12.22
2022-08-11T04:09:48.669Z,12.19
2022-08-11T04:10:38.629Z,12.16
2022-08-11T04:11:28.631Z,12.13
2022-08-11T04:12:36.744Z,12.15
2022-08-11T04:13:09.646Z,12.15
2022-08-11T04:13:58.599Z,12.16
2022-08-11T04:14:48.609Z,12.16
2022-08-11T04:15:38.588Z,12.16
2022-08-11T04:16:28.577Z,12.19
2022-08-11T04:17:18.597Z,12.21
2022-08-11T04:18:08.588Z,12.21
2022-08-11T04:18:58.545Z,12.22
2022-08-11T04:19:48.538Z,12.23
2022-08-11T04:20:38.539Z,12.23
2022-08-11T04:21:28.546Z,12.25
2022-08-11T04:22:18.533Z,12.23
2022-08-11T04:23:08.517Z,12.23
2022-08-11T04:24:35.989Z,12.21
2022-08-11T04:24:50.633Z,12.23
2022-08-11T04:25:57.605Z,12.21
2022-08-11T04:26:29.494Z,12.16
2022-08-11T04:27:19.197Z,12.13
2022-08-11T04:28:08.464Z,12.12
2022-08-11T04:28:59.447Z,12.12
2022-08-11T04:30:03.718Z,12.11
2022-08-11T04:30:40.639Z,12.11
2022-08-11T04:31:51.133Z,12.11
2022-08-11T04:32:19.418Z,12.11
2022-08-11T04:33:08.396Z,12.11
2022-08-11T04:33:58.388Z,12.12
2022-08-11T04:34:48.394Z,12.13
2022-08-11T04:35:38.377Z,12.13
2022-08-11T04:36:28.363Z,12.13
2022-08-11T04:37:18.336Z,12.16
2022-08-11T04:38:08.336Z,12.18
2022-08-11T04:38:58.337Z,12.18
2022-08-11T04:39:48.418Z,12.19
2022-08-11T04:40:38.316Z,12.19
2022-08-11T04:41:28.296Z,12.22
2022-08-11T04:42:18.283Z,12.23
2022-08-11T04:43:08.276Z,12.23
2022-08-11T04:44:05.490Z,12.22
2022-08-11T04:44:49.295Z,12.21
2022-08-11T04:45:38.248Z,12.16
2022-08-11T04:46:28.244Z,12.15
2022-08-11T04:47:18.236Z,12.11
2022-08-11T04:48:08.225Z,12.11
2022-08-11T04:48:58.215Z,12.11
2022-08-11T04:49:48.234Z,12.07
2022-08-11T04:50:38.203Z,12.07
2022-08-11T04:51:38.138Z,12.07
2022-08-11T04:52:18.175Z,12.05
2022-08-11T04:53:08.174Z,12.07
2022-08-11T04:53:58.167Z,12.07
2022-08-11T04:54:48.165Z,12.07
2022-08-11T04:55:38.135Z,12.08
2022-08-11T04:56:28.148Z,12.07
2022-08-11T04:57:18.142Z,12.07
2022-08-11T04:58:08.115Z,12.08
2022-08-11T04:58:58.114Z,12.11
2022-08-11T04:59:48.140Z,12.07
2022-08-11T05:00:38.075Z,12.11
2022-08-11T05:01:28.154Z,12.11
2022-08-11T05:02:18.127Z,12.11
2022-08-11T05:03:08.064Z,12.12
2022-08-11T05:03:58.054Z,12.13
2022-08-11T05:04:48.056Z,12.16
2022-08-11T05:05:38.046Z,12.18
2022-08-11T05:06:28.024Z,12.21
2022-08-11T05:07:18.004Z,12.22
2022-08-11T05:08:08.014Z,12.23
2022-08-11T05:08:57.993Z,12.23
2022-08-11T05:09:48.005Z,12.25
2022-08-11T05:10:43.273Z,12.22
2022-08-11T05:11:28.963Z,12.23
2022-08-11T05:12:17.957Z,12.25
2022-08-11T05:13:07.944Z,12.26
2022-08-11T05:13:57.962Z,12.25
2022-08-11T05:14:47.953Z,12.22
2022-08-11T05:15:43.006Z,12.21
2022-08-11T05:16:28.922Z,12.18
2022-08-11T05:17:17.910Z,12.18
2022-08-11T05:18:07.902Z,12.16
2022-08-11T05:18:57.882Z,12.18
2022-08-11T05:19:47.883Z,12.19
2022-08-11T05:20:37.875Z,12.21
2022-08-11T05:21:27.862Z,12.23
2022-08-11T05:22:17.882Z,12.23
2022-08-11T05:23:07.845Z,12.23
2022-08-11T05:23:57.854Z,12.25
2022-08-11T05:24:47.831Z,12.23
2022-08-11T05:26:42.952Z,12.23
2022-08-11T05:26:48.055Z,12.22
2022-08-11T05:27:19.093Z,12.22
2022-08-11T05:28:08.102Z,12.19
2022-08-11T05:28:57.875Z,12.21
2022-08-11T05:29:48.148Z,12.21
2022-08-11T05:30:37.990Z,12.23
2022-08-11T05:31:28.221Z,12.22
2022-08-11T05:32:17.828Z,12.25
2022-08-11T05:33:11.588Z,12.23
2022-08-11T05:33:58.081Z,12.25
2022-08-11T05:34:48.167Z,12.23
2022-08-11T05:36:01.462Z,12.25
2022-08-11T05:36:28.771Z,12.29
2022-08-11T05:37:26.774Z,12.29
2022-08-11T05:38:08.871Z,12.30
2022-08-11T05:38:58.085Z,12.30
2022-08-11T05:39:48.397Z,12.30
2022-08-11T05:40:38.174Z,12.29
2022-08-11T05:41:27.938Z,12.26
2022-08-11T05:42:29.595Z,12.25
2022-08-11T05:43:08.901Z,12.26
2022-08-11T05:44:20.215Z,12.26
2022-08-11T05:44:48.975Z,12.29
2022-08-11T05:46:02.929Z,12.30
2022-08-11T05:46:28.852Z,12.31
2022-08-11T05:47:17.861Z,12.31
2022-08-11T05:48:07.922Z,12.34
2022-08-11T05:48:57.844Z,12.36
2022-08-11T05:49:47.561Z,12.38
2022-08-11T05:50:37.673Z,12.41
2022-08-11T05:51:29.922Z,12.44
2022-08-11T05:52:17.701Z,12.46
2022-08-11T05:53:09.322Z,12.49
2022-08-11T05:53:57.531Z,12.52
2022-08-11T05:54:47.601Z,12.54
2022-08-11T05:56:01.658Z,12.58
2022-08-11T05:56:28.458Z,12.56
2022-08-11T05:57:39.708Z,12.59
2022-08-11T05:58:08.461Z,12.59
2022-08-11T05:58:57.448Z,12.62
2022-08-11T05:59:47.430Z,12.63
2022-08-11T06:00:37.420Z,12.69
2022-08-11T06:01:27.434Z,12.67
2022-08-11T06:02:17.430Z,12.70
2022-08-11T06:03:07.462Z,12.70
2022-08-11T06:03:58.832Z,12.71
2022-08-11T06:04:47.381Z,12.73
2022-08-11T06:05:43.592Z,12.74
2022-08-11T06:06:28.369Z,12.76
2022-08-11T06:07:17.352Z,12.77
2022-08-11T06:08:07.352Z,12.84
2022-08-11T06:08:57.319Z,12.87
2022-08-11T06:09:47.330Z,12.91
2022-08-11T06:10:37.319Z,12.91
2022-08-11T06:11:43.765Z,12.94
2022-08-11T06:12:18.298Z,12.96
2022-08-11T06:17:39.081Z,13.12
2022-08-11T06:18:27.211Z,13.16
2022-08-11T06:19:17.219Z,13.19
2022-08-11T06:20:07.830Z,13.21
2022-08-11T06:20:57.212Z,13.24
2022-08-11T06:21:47.181Z,13.27
2022-08-11T06:22:37.313Z,13.28
2022-08-11T06:23:27.243Z,13.32
2022-08-11T06:24:17.200Z,13.36
2022-08-11T06:25:07.161Z,13.39
2022-08-11T06:25:57.141Z,13.43
2022-08-11T06:27:09.098Z,13.46
2022-08-11T06:27:38.121Z,13.47
2022-08-11T06:32:58.587Z,13.69
2022-08-11T06:33:48.539Z,13.72
2022-08-11T06:34:38.536Z,13.73
2022-08-11T06:35:28.537Z,13.76
2022-08-11T06:36:18.531Z,13.80
2022-08-11T06:37:08.500Z,13.83
2022-08-11T06:37:58.802Z,13.86
2022-08-11T06:38:48.502Z,13.90
2022-08-11T06:39:38.532Z,13.90
2022-08-11T06:40:28.489Z,13.94
2022-08-11T06:41:18.459Z,13.99
2022-08-11T06:42:08.438Z,14.01
2022-08-11T06:42:58.449Z,14.05
2022-08-11T06:43:52.778Z,14.12
2022-08-11T06:44:39.428Z,14.16
2022-08-11T06:45:28.407Z,14.21
2022-08-11T06:46:28.159Z,14.30
2022-08-11T06:47:09.411Z,14.36
2022-08-11T06:47:58.406Z,14.46
2022-08-11T06:48:48.368Z,14.56
2022-08-11T06:49:38.378Z,14.67
2022-08-11T06:50:28.358Z,14.80
2022-08-11T06:51:18.361Z,14.95
2022-08-11T06:52:12.811Z,15.18
2022-08-11T06:52:59.348Z,15.38
2022-08-11T06:54:03.244Z,15.52
2022-08-11T06:54:39.427Z,15.67
2022-08-11T06:55:55.848Z,15.92
2022-08-11T06:56:19.325Z,16.13
2022-08-11T06:57:59.291Z,16.32
2022-08-11T06:58:48.275Z,16.48
2022-08-11T06:59:38.248Z,16.63
2022-08-11T07:00:28.259Z,16.81
2022-08-11T07:01:18.297Z,16.92
2022-08-11T07:02:08.336Z,16.98
2022-08-11T07:02:58.218Z,16.99
2022-08-11T07:03:48.218Z,17.02
2022-08-11T07:04:38.188Z,17.06
2022-08-11T07:05:28.186Z,17.15
2022-08-11T07:06:18.178Z,17.28
2022-08-11T07:07:08.178Z,17.47
2022-08-11T07:07:58.176Z,17.60
2022-08-11T07:08:49.167Z,17.68
2022-08-11T07:09:38.137Z,17.81
2022-08-11T07:10:28.166Z,17.84
2022-08-11T07:11:18.126Z,17.86
2022-08-11T07:12:08.127Z,18.04
2022-08-11T07:12:58.146Z,18.16
2022-08-11T07:13:48.105Z,18.16
2022-08-11T07:14:38.722Z,18.10
2022-08-11T07:16:13.122Z,18.01
2022-08-11T07:16:19.079Z,17.98
2022-08-11T07:17:09.069Z,18.07
2022-08-11T07:17:58.037Z,18.21
2022-08-11T07:18:48.055Z,18.29
2022-08-11T07:19:38.018Z,18.32
2022-08-11T07:20:28.038Z,18.38
2022-08-11T07:21:59.925Z,18.42
2022-08-11T07:22:09.014Z,18.46
2022-08-11T07:22:58.007Z,18.56
2022-08-11T07:23:47.999Z,18.64
2022-08-11T07:24:59.549Z,18.75
2022-08-11T07:25:28.977Z,19.05
2022-08-11T07:26:17.977Z,19.27
2022-08-11T07:27:08.237Z,19.42
2022-08-11T07:27:57.927Z,19.60
2022-08-11T07:28:47.941Z,19.78
2022-08-11T07:29:37.926Z,19.90
2022-08-11T07:30:27.941Z,20.10
2022-08-11T07:31:17.905Z,20.16
2022-08-11T07:32:07.967Z,20.20
2022-08-11T07:32:57.887Z,20.19
2022-08-11T07:34:08.077Z,20.25
2022-08-11T07:34:38.866Z,20.31
2022-08-11T07:35:27.863Z,20.44
2022-08-11T07:36:17.864Z,20.57
2022-08-11T07:37:07.826Z,20.69
2022-08-11T07:38:01.842Z,20.76
2022-08-11T07:38:48.816Z,20.82
2022-08-11T07:39:37.859Z,20.83
2022-08-11T07:40:27.787Z,20.88
2022-08-11T07:41:17.797Z,20.93
2022-08-11T07:42:07.809Z,20.96
2022-08-11T07:42:57.766Z,21.03
2022-08-11T07:43:47.786Z,21.09
2022-08-11T07:44:37.747Z,21.13
2022-08-11T07:45:27.734Z,21.18
2022-08-11T07:46:17.718Z,21.26
2022-08-11T07:47:07.728Z,21.36
2022-08-11T07:47:57.716Z,21.43
2022-08-11T07:48:47.716Z,21.48
2022-08-11T07:49:37.697Z,21.46
2022-08-11T07:50:27.711Z,21.40
2022-08-11T07:51:17.678Z,21.36
2022-08-11T07:52:07.679Z,21.40
2022-08-11T07:52:57.681Z,21.46
2022-08-11T07:53:57.781Z,21.49
2022-08-11T07:54:38.626Z,21.56
2022-08-11T07:55:51.115Z,21.59
2022-08-11T07:56:19.586Z,21.66
2022-08-11T07:57:09.609Z,21.66
2022-08-11T07:58:15.225Z,21.68
2022-08-11T07:58:52.375Z,21.66
2022-08-11T08:00:03.935Z,21.71
2022-08-11T08:00:30.040Z,21.73
2022-08-11T08:01:22.548Z,21.75
2022-08-11T08:02:08.597Z,21.77
2022-08-11T08:02:57.559Z,21.81
2022-08-11T08:03:54.156Z,21.83
2022-08-11T08:04:38.539Z,21.90
2022-08-11T08:05:27.531Z,21.94
2022-08-11T08:06:35.738Z,21.99
2022-08-11T08:07:08.507Z,22.05
2022-08-11T08:07:57.517Z,22.09
2022-08-11T08:08:47.477Z,22.11
2022-08-11T08:09:37.889Z,22.11
2022-08-11T08:10:27.457Z,22.08
2022-08-11T08:11:18.291Z,22.08
2022-08-11T08:12:07.436Z,22.11
2022-08-11T08:12:57.437Z,22.15
2022-08-11T08:13:47.448Z,22.17
2022-08-11T08:14:37.426Z,22.19
2022-08-11T08:15:27.406Z,22.24
2022-08-11T08:16:17.397Z,22.29
2022-08-11T08:17:07.386Z,22.31
2022-08-11T08:18:09.720Z,22.35
2022-08-11T08:18:48.387Z,22.35
2022-08-11T08:19:37.366Z,22.33
2022-08-11T08:20:27.364Z,22.33
2022-08-11T08:21:17.327Z,22.38
2022-08-11T08:22:11.955Z,22.38
2022-08-11T08:22:58.314Z,22.44
2022-08-11T08:23:47.318Z,22.48
2022-08-11T08:24:38.316Z,22.48
2022-08-11T08:25:27.291Z,22.54
2022-08-11T08:26:17.317Z,22.64
2022-08-11T08:27:07.276Z,22.66
2022-08-11T08:27:57.257Z,22.69
2022-08-11T08:28:47.267Z,22.78
2022-08-11T08:29:37.260Z,22.78
2022-08-11T08:30:27.237Z,22.79
2022-08-11T08:31:17.238Z,22.76
2022-08-11T08:32:07.247Z,22.74
2022-08-11T08:32:57.227Z,22.74
2022-08-11T08:33:47.197Z,22.74
2022-08-11T08:34:37.198Z,22.72
2022-08-11T08:35:30.691Z,22.74
2022-08-11T08:36:18.197Z,22.72
2022-08-11T08:37:16.267Z,22.76
2022-08-11T08:37:58.158Z,22.82
2022-08-11T08:38:47.159Z,22.88
2022-08-11T08:39:37.198Z,22.94
2022-08-11T08:40:27.144Z,23.00
2022-08-11T08:41:17.126Z,23.01
2022-08-11T08:42:07.122Z,23.00
2022-08-11T08:42:57.117Z,23.03
2022-08-11T08:43:48.482Z,23.12
2022-08-11T08:44:40.804Z,23.15
2022-08-11T08:45:27.068Z,23.16
2022-08-11T08:46:17.058Z,23.25
2022-08-11T08:47:07.067Z,23.29
2022-08-11T08:47:57.064Z,23.25
2022-08-11T08:48:47.051Z,23.26
2022-08-11T08:49:40.546Z,23.29
2022-08-11T08:50:27.521Z,23.31
2022-08-11T08:51:17.319Z,23.32
2022-08-11T08:52:30.754Z,23.31
2022-08-11T08:52:58.008Z,23.31
2022-08-11T08:53:52.595Z,23.35
2022-08-11T08:54:37.970Z,23.38
2022-08-11T08:55:26.976Z,23.35
2022-08-11T08:56:16.969Z,23.38
2022-08-11T08:57:06.939Z,23.39
2022-08-11T08:57:56.938Z,23.41
2022-08-11T08:58:46.938Z,23.45
2022-08-11T08:59:47.672Z,23.50
2022-08-11T09:00:27.908Z,23.57
2022-08-11T09:01:17.076Z,23.62
2022-08-11T09:02:06.878Z,23.67
2022-08-11T09:02:56.888Z,23.71
2022-08-11T09:04:04.787Z,23.72
2022-08-11T09:04:37.870Z,23.74
2022-08-11T09:05:26.859Z,23.82
2022-08-11T09:06:16.838Z,23.86
2022-08-11T09:07:06.827Z,23.86
2022-08-11T09:07:56.830Z,23.84
2022-08-11T09:08:46.826Z,23.93
2022-08-11T09:09:37.800Z,23.93
2022-08-11T09:10:26.789Z,23.94
2022-08-11T09:11:16.797Z,23.99
2022-08-11T09:12:06.777Z,23.96
2022-08-11T09:12:56.770Z,23.92
2022-08-11T09:13:46.773Z,23.90
2022-08-11T09:14:37.788Z,23.93
2022-08-11T09:15:26.741Z,23.97
2022-08-11T09:16:16.736Z,23.97
2022-08-11T09:17:06.717Z,24.02
2022-08-11T09:17:56.709Z,24.06
2022-08-11T09:18:46.709Z,24.11
2022-08-11T09:19:36.679Z,24.15
2022-08-11T09:20:26.710Z,24.15
2022-08-11T09:21:44.495Z,24.15
2022-08-11T09:22:07.668Z,24.16
2022-08-11T09:23:29.470Z,24.21
2022-08-11T09:24:08.890Z,24.27
2022-08-11T09:24:37.628Z,24.30
2022-08-11T09:25:26.640Z,24.27
2022-08-11T09:26:16.616Z,24.23
2022-08-11T09:27:06.625Z,24.21
2022-08-11T09:27:56.590Z,24.23
2022-08-11T09:28:46.593Z,24.24
2022-08-11T09:29:36.568Z,24.27
2022-08-11T09:30:26.579Z,24.34
2022-08-11T09:31:16.642Z,24.39
2022-08-11T09:32:06.559Z,24.44
2022-08-11T09:32:56.530Z,24.45
2022-08-11T09:33:46.531Z,24.45
2022-08-11T09:34:36.536Z,24.48
2022-08-11T09:35:26.519Z,24.46
2022-08-11T09:36:16.520Z,24.48
2022-08-11T09:37:06.500Z,24.48
2022-08-11T09:37:56.700Z,24.53
2022-08-11T09:38:49.567Z,24.53
2022-08-11T09:39:36.570Z,24.55
2022-08-11T09:40:27.311Z,24.52
2022-08-11T09:41:16.449Z,24.59
2022-08-11T09:42:06.460Z,24.66
2022-08-11T09:42:57.421Z,24.70
2022-08-11T09:43:46.413Z,24.68
2022-08-11T09:44:36.409Z,24.67
2022-08-11T09:45:26.430Z,24.67
2022-08-11T09:46:16.400Z,24.63
2022-08-11T09:47:06.397Z,24.64
2022-08-11T09:47:56.380Z,24.68
2022-08-11T09:48:46.359Z,24.75
2022-08-11T09:49:36.354Z,24.77
2022-08-11T09:50:26.360Z,24.80
2022-08-11T09:51:16.328Z,24.84
2022-08-11T09:52:06.327Z,24.84
2022-08-11T09:53:34.812Z,24.84
2022-08-11T09:54:03.545Z,24.93
2022-08-11T09:54:37.300Z,24.94
2022-08-11T09:55:26.310Z,24.94
2022-08-11T09:56:16.268Z,24.94
2022-08-11T09:57:06.290Z,24.90
2022-08-11T09:57:56.249Z,24.82
2022-08-11T09:58:46.258Z,24.82
2022-08-11T09:59:36.241Z,24.84
2022-08-11T10:00:26.249Z,24.89
2022-08-11T10:01:16.272Z,24.92
2022-08-11T10:02:06.220Z,24.97
2022-08-11T10:02:56.191Z,24.93
2022-08-11T10:03:46.195Z,24.98
2022-08-11T10:04:36.171Z,25.01
2022-08-11T10:05:26.171Z,25.02
2022-08-11T10:06:16.180Z,25.02
2022-08-11T10:07:06.148Z,25.07
2022-08-11T10:07:56.150Z,25.12
2022-08-11T10:08:46.152Z,25.22
2022-08-11T10:09:36.130Z,25.27
2022-08-11T10:10:26.120Z,25.31
2022-08-11T10:11:16.121Z,25.31
2022-08-11T10:12:06.102Z,25.30
2022-08-11T10:12:56.080Z,25.29
2022-08-11T10:14:31.615Z,25.29
2022-08-11T10:14:40.119Z,25.36
2022-08-11T10:15:27.073Z,25.42
2022-08-11T10:16:16.883Z,25.49
2022-08-11T10:17:06.043Z,25.54
2022-08-11T10:17:56.043Z,25.57
2022-08-11T10:18:46.032Z,25.56
2022-08-11T10:19:36.021Z,25.56
2022-08-11T10:20:26.071Z,25.57
2022-08-11T10:21:15.992Z,25.57
2022-08-11T10:22:05.980Z,25.53
2022-08-11T10:22:55.982Z,25.56
2022-08-11T10:24:01.325Z,25.57
2022-08-11T10:24:36.962Z,25.61
2022-08-11T10:25:25.944Z,25.61
2022-08-11T10:26:15.942Z,25.60
2022-08-11T10:27:05.931Z,25.60
2022-08-11T10:28:28.644Z,25.64
2022-08-11T10:29:11.680Z,25.66
2022-08-11T10:29:37.524Z,25.66
2022-08-11T10:30:26.981Z,25.69
2022-08-11T10:31:16.541Z,25.71
2022-08-11T10:32:05.885Z,25.69
2022-08-11T10:32:58.817Z,25.66
2022-08-11T10:33:57.748Z,25.66
2022-08-11T10:34:36.852Z,25.66
2022-08-11T10:35:25.842Z,25.75
2022-08-11T10:36:16.778Z,25.83
2022-08-11T10:37:05.820Z,25.85
2022-08-11T10:38:07.544Z,25.83
2022-08-11T10:38:46.814Z,25.86
2022-08-11T10:39:35.848Z,25.86
2022-08-11T10:40:25.792Z,25.90
2022-08-11T10:41:15.762Z,25.96
2022-08-11T10:42:08.920Z,25.97
2022-08-11T10:42:58.221Z,26.01
2022-08-11T10:44:02.403Z,26.08
2022-08-11T10:44:36.722Z,26.08
2022-08-11T10:45:25.717Z,26.11
2022-08-11T10:46:15.717Z,26.16
2022-08-11T10:47:05.722Z,26.20
2022-08-11T10:47:55.703Z,26.19
2022-08-11T10:48:45.693Z,26.12
2022-08-11T10:49:35.673Z,26.09
2022-08-11T10:50:25.663Z,26.11
2022-08-11T10:51:15.669Z,26.08
2022-08-11T10:52:06.633Z,26.08
2022-08-11T10:52:55.643Z,26.08
2022-08-11T10:53:45.613Z,26.03